sensor_id;sensor_type;location;lat;lon;timestamp;pressure;altitude;pressure_sealevel;temperature;humidity
10806;BME280;5455;53.224;6.000;2023-08-31T00:00:00;100576.69;;;12.85;100.00
10806;BME280;5455;53.224;6.000;2023-08-31T00:02:27;100583.66;;;12.71;100.00
10806;BME280;5455;53.224;6.000;2023-08-31T00:04:54;100575.22;;;12.57;100.00
10806;BME280;5455;53.224;6.000;2023-08-31T00:07:21;100567.97;;;12.46;100.00
10806;BME280;5455;53.224;6.000;2023-08-31T00:09:48;100568.28;;;12.41;100.00
10806;BME280;5455;53.224;6.000;2023-08-31T00:12:16;100558.72;;;12.31;100.00
10806;BME280;5455;53.224;6.000;2023-08-31T00:14:43;100554.63;;;12.18;100.00
10806;BME280;5455;53.224;6.000;2023-08-31T00:17:10;100560.06;;;12.11;100.00
10806;BME280;5455;53.224;6.000;2023-08-31T00:19:37;100556.41;;;12.03;100.00
10806;BME280;5455;53.224;6.000;2023-08-31T00:22:05;100567.38;;;11.96;100.00
10806;BME280;5455;53.224;6.000;2023-08-31T00:24:32;100558.69;;;11.94;100.00
10806;BME280;5455;53.224;6.000;2023-08-31T00:27:03;100557.78;;;11.87;100.00
10806;BME280;5455;53.224;6.000;2023-08-31T00:29:31;100550.22;;;11.84;100.00
10806;BME280;5455;53.224;6.000;2023-08-31T00:31:58;100556.16;;;11.82;100.00
10806;BME280;5455;53.224;6.000;2023-08-31T00:34:25;100551.41;;;11.83;100.00
10806;BME280;5455;53.224;6.000;2023-08-31T00:36:52;100551.38;;;11.79;100.00
10806;BME280;5455;53.224;6.000;2023-08-31T00:39:18;100546.84;;;11.68;100.00
10806;BME280;5455;53.224;6.000;2023-08-31T00:41:47;100550.34;;;11.65;100.00
10806;BME280;5455;53.224;6.000;2023-08-31T00:44:14;100556.28;;;11.67;100.00
10806;BME280;5455;53.224;6.000;2023-08-31T00:46:47;100548.50;;;11.72;100.00
10806;BME280;5455;53.224;6.000;2023-08-31T00:49:15;100548.66;;;11.83;100.00
10806;BME280;5455;53.224;6.000;2023-08-31T00:51:43;100547.06;;;11.82;100.00
10806;BME280;5455;53.224;6.000;2023-08-31T00:54:16;100549.81;;;11.82;100.00
10806;BME280;5455;53.224;6.000;2023-08-31T00:56:44;100547.06;;;11.82;100.00
10806;BME280;5455;53.224;6.000;2023-08-31T00:59:12;100553.78;;;11.84;100.00
10806;BME280;5455;53.224;6.000;2023-08-31T01:01:51;100545.50;;;11.84;100.00
10806;BME280;5455;53.224;6.000;2023-08-31T01:04:33;100553.78;;;11.84;100.00
10806;BME280;5455;53.224;6.000;2023-08-31T01:07:24;100544.75;;;11.87;100.00
10806;BME280;5455;53.224;6.000;2023-08-31T01:10:02;100541.63;;;11.89;100.00
10806;BME280;5455;53.224;6.000;2023-08-31T01:12:58;100551.13;;;11.91;100.00
10806;BME280;5455;53.224;6.000;2023-08-31T01:15:31;100541.25;;;11.90;100.00
10806;BME280;5455;53.224;6.000;2023-08-31T01:18:00;100532.97;;;11.90;100.00
10806;BME280;5455;53.224;6.000;2023-08-31T01:20:45;100528.56;;;11.86;100.00
10806;BME280;5455;53.224;6.000;2023-08-31T01:23:16;100533.81;;;11.94;100.00
10806;BME280;5455;53.224;6.000;2023-08-31T01:25:45;100540.13;;;11.95;100.00
10806;BME280;5455;53.224;6.000;2023-08-31T01:28:15;100539.00;;;11.99;100.00
10806;BME280;5455;53.224;6.000;2023-08-31T01:30:42;100539.78;;;12.00;100.00
10806;BME280;5455;53.224;6.000;2023-08-31T01:33:10;100541.75;;;11.99;100.00
10806;BME280;5455;53.224;6.000;2023-08-31T01:35:49;100545.78;;;12.05;100.00
10806;BME280;5455;53.224;6.000;2023-08-31T01:38:25;100541.56;;;12.15;100.00
10806;BME280;5455;53.224;6.000;2023-08-31T01:41:10;100539.63;;;12.19;100.00
10806;BME280;5455;53.224;6.000;2023-08-31T01:43:40;100534.16;;;12.26;100.00
10806;BME280;5455;53.224;6.000;2023-08-31T01:46:09;100525.88;;;12.26;100.00
10806;BME280;5455;53.224;6.000;2023-08-31T01:48:40;100527.88;;;12.26;100.00
10806;BME280;5455;53.224;6.000;2023-08-31T01:51:08;100520.78;;;12.28;100.00
10806;BME280;5455;53.224;6.000;2023-08-31T01:53:36;100516.47;;;12.31;100.00
10806;BME280;5455;53.224;6.000;2023-08-31T01:56:03;100518.03;;;12.32;100.00
10806;BME280;5455;53.224;6.000;2023-08-31T01:58:31;100520.41;;;12.30;100.00
10806;BME280;5455;53.224;6.000;2023-08-31T02:00:59;100520.81;;;12.32;100.00
10806;BME280;5455;53.224;6.000;2023-08-31T02:03:27;100518.03;;;12.28;100.00
10806;BME280;5455;53.224;6.000;2023-08-31T02:05:54;100519.94;;;12.24;100.00
10806;BME280;5455;53.224;6.000;2023-08-31T02:08:21;100508.47;;;12.22;100.00
10806;BME280;5455;53.224;6.000;2023-08-31T02:10:50;100511.19;;;12.19;100.00
10806;BME280;5455;53.224;6.000;2023-08-31T02:13:22;100513.56;;;12.20;100.00
10806;BME280;5455;53.224;6.000;2023-08-31T02:15:52;100512.75;;;12.16;100.00
10806;BME280;5455;53.224;6.000;2023-08-31T02:18:19;100522.25;;;12.19;100.00
10806;BME280;5455;53.224;6.000;2023-08-31T02:20:46;100525.03;;;12.19;100.00
10806;BME280;5455;53.224;6.000;2023-08-31T02:23:13;100516.47;;;12.31;100.00
10806;BME280;5455;53.224;6.000;2023-08-31T02:25:40;100513.31;;;12.32;100.00
10806;BME280;5455;53.224;6.000;2023-08-31T02:28:07;100521.25;;;12.34;100.00
10806;BME280;5455;53.224;6.000;2023-08-31T02:30:36;100510.59;;;12.36;100.00
10806;BME280;5455;53.224;6.000;2023-08-31T02:33:05;100513.00;;;12.41;100.00
10806;BME280;5455;53.224;6.000;2023-08-31T02:35:32;100517.81;;;12.47;100.00
10806;BME280;5455;53.224;6.000;2023-08-31T02:38:00;100517.41;;;12.45;100.00
10806;BME280;5455;53.224;6.000;2023-08-31T02:40:27;100520.22;;;12.49;100.00
10806;BME280;5455;53.224;6.000;2023-08-31T02:42:54;100514.69;;;12.49;100.00
10806;BME280;5455;53.224;6.000;2023-08-31T02:45:21;100518.25;;;12.53;100.00
10806;BME280;5455;53.224;6.000;2023-08-31T02:47:48;100517.16;;;12.61;100.00
10806;BME280;5455;53.224;6.000;2023-08-31T02:50:17;100518.41;;;12.67;100.00
10806;BME280;5455;53.224;6.000;2023-08-31T02:52:43;100514.44;;;12.68;100.00
10806;BME280;5455;53.224;6.000;2023-08-31T02:55:10;100508.16;;;12.67;100.00
10806;BME280;5455;53.224;6.000;2023-08-31T02:57:37;100504.16;;;12.65;100.00
10806;BME280;5455;53.224;6.000;2023-08-31T03:00:05;100512.41;;;12.58;100.00
10806;BME280;5455;53.224;6.000;2023-08-31T03:02:36;100506.00;;;12.50;100.00
10806;BME280;5455;53.224;6.000;2023-08-31T03:05:03;100512.69;;;12.46;100.00
10806;BME280;5455;53.224;6.000;2023-08-31T03:07:31;100507.91;;;12.43;100.00
10806;BME280;5455;53.224;6.000;2023-08-31T03:09:58;100512.25;;;12.44;100.00
10806;BME280;5455;53.224;6.000;2023-08-31T03:12:25;100514.63;;;12.45;100.00
10806;BME280;5455;53.224;6.000;2023-08-31T03:14:53;100514.25;;;12.43;100.00
10806;BME280;5455;53.224;6.000;2023-08-31T03:17:20;100513.00;;;12.41;100.00
10806;BME280;5455;53.224;6.000;2023-08-31T03:19:47;100520.03;;;12.35;100.00
10806;BME280;5455;53.224;6.000;2023-08-31T03:22:14;100518.88;;;12.36;100.00
10806;BME280;5455;53.224;6.000;2023-08-31T03:24:41;100514.16;;;12.36;100.00
10806;BME280;5455;53.224;6.000;2023-08-31T03:27:08;100523.25;;;12.37;100.00
10806;BME280;5455;53.224;6.000;2023-08-31T03:29:35;100522.06;;;12.38;100.00
10806;BME280;5455;53.224;6.000;2023-08-31T03:32:02;100519.28;;;12.38;100.00
10806;BME280;5455;53.224;6.000;2023-08-31T03:34:30;100526.00;;;12.37;100.00
10806;BME280;5455;53.224;6.000;2023-08-31T03:36:58;100526.81;;;12.37;100.00
10806;BME280;5455;53.224;6.000;2023-08-31T03:39:25;100528.78;;;12.37;100.00
10806;BME280;5455;53.224;6.000;2023-08-31T03:41:52;100531.53;;;12.37;100.00
10806;BME280;5455;53.224;6.000;2023-08-31T03:44:21;100534.66;;;12.35;100.00
10806;BME280;5455;53.224;6.000;2023-08-31T03:46:49;100533.75;;;12.24;100.00
10806;BME280;5455;53.224;6.000;2023-08-31T03:49:16;100530.91;;;12.13;100.00
10806;BME280;5455;53.224;6.000;2023-08-31T03:51:44;100538.69;;;12.04;100.00
10806;BME280;5455;53.224;6.000;2023-08-31T03:54:12;100542.66;;;12.07;100.00
10806;BME280;5455;53.224;6.000;2023-08-31T03:56:39;100535.53;;;12.06;100.00
10806;BME280;5455;53.224;6.000;2023-08-31T03:59:07;100541.84;;;12.06;100.00
10806;BME280;5455;53.224;6.000;2023-08-31T04:01:34;100537.44;;;12.02;100.00
10806;BME280;5455;53.224;6.000;2023-08-31T04:04:01;100545.72;;;12.02;100.00
10806;BME280;5455;53.224;6.000;2023-08-31T04:06:30;100534.59;;;11.95;100.00
10806;BME280;5455;53.224;6.000;2023-08-31T04:08:57;100546.72;;;11.87;100.00
10806;BME280;5455;53.224;6.000;2023-08-31T04:11:24;100541.13;;;11.80;100.00
10806;BME280;5455;53.224;6.000;2023-08-31T04:13:52;100547.34;;;11.73;100.00
10806;BME280;5455;53.224;6.000;2023-08-31T04:16:18;100552.72;;;11.66;100.00
10806;BME280;5455;53.224;6.000;2023-08-31T04:18:45;100555.03;;;11.60;100.00
10806;BME280;5455;53.224;6.000;2023-08-31T04:21:18;100564.84;;;11.58;100.00
10806;BME280;5455;53.224;6.000;2023-08-31T04:23:47;100560.13;;;11.58;100.00
10806;BME280;5455;53.224;6.000;2023-08-31T04:26:14;100564.78;;;11.54;100.00
10806;BME280;5455;53.224;6.000;2023-08-31T04:28:42;100573.41;;;11.49;100.00
10806;BME280;5455;53.224;6.000;2023-08-31T04:31:09;100573.03;;;11.51;100.00
10806;BME280;5455;53.224;6.000;2023-08-31T04:33:37;100577.38;;;11.52;100.00
10806;BME280;5455;53.224;6.000;2023-08-31T04:36:05;100576.63;;;11.55;100.00
10806;BME280;5455;53.224;6.000;2023-08-31T04:38:34;100577.56;;;11.66;100.00
10806;BME280;5455;53.224;6.000;2023-08-31T04:41:01;100586.88;;;11.77;100.00
10806;BME280;5455;53.224;6.000;2023-08-31T04:43:29;100588.16;;;11.87;100.00
10806;BME280;5455;53.224;6.000;2023-08-31T04:45:56;100590.31;;;12.00;100.00
10806;BME280;5455;53.224;6.000;2023-08-31T04:48:23;100590.84;;;12.09;100.00
10806;BME280;5455;53.224;6.000;2023-08-31T04:50:55;100600.81;;;12.18;100.00
10806;BME280;5455;53.224;6.000;2023-08-31T04:53:22;100594.47;;;12.17;100.00
10806;BME280;5455;53.224;6.000;2023-08-31T04:55:49;100596.84;;;12.15;100.00
10806;BME280;5455;53.224;6.000;2023-08-31T04:58:16;100602.59;;;12.03;100.00
10806;BME280;5455;53.224;6.000;2023-08-31T05:00:43;100605.31;;;11.99;100.00
10806;BME280;5455;53.224;6.000;2023-08-31T05:03:11;100615.94;;;11.97;100.00
10806;BME280;5455;53.224;6.000;2023-08-31T05:05:38;100608.41;;;11.94;100.00
10806;BME280;5455;53.224;6.000;2023-08-31T05:08:06;100615.47;;;11.92;100.00
10806;BME280;5455;53.224;6.000;2023-08-31T05:10:33;100613.53;;;11.92;100.00
10806;BME280;5455;53.224;6.000;2023-08-31T05:13:01;100621.41;;;11.94;100.00
10806;BME280;5455;53.224;6.000;2023-08-31T05:15:28;100618.72;;;11.97;100.00
10806;BME280;5455;53.224;6.000;2023-08-31T05:17:55;100624.34;;;12.04;100.00
10806;BME280;5455;53.224;6.000;2023-08-31T05:20:23;100624.88;;;12.13;100.00
10806;BME280;5455;53.224;6.000;2023-08-31T05:22:50;100623.38;;;12.23;100.00
10806;BME280;5455;53.224;6.000;2023-08-31T05:25:17;100635.34;;;12.31;100.00
10806;BME280;5455;53.224;6.000;2023-08-31T05:27:44;100633.00;;;12.33;100.00
10806;BME280;5455;53.224;6.000;2023-08-31T05:30:12;100642.78;;;12.27;100.00
10806;BME280;5455;53.224;6.000;2023-08-31T05:32:39;100644.34;;;12.24;100.00
10806;BME280;5455;53.224;6.000;2023-08-31T05:35:06;100635.47;;;12.11;100.00
10806;BME280;5455;53.224;6.000;2023-08-31T05:37:34;100637.19;;;12.20;100.00
10806;BME280;5455;53.224;6.000;2023-08-31T05:40:03;100640.69;;;12.17;100.00
10806;BME280;5455;53.224;6.000;2023-08-31T05:42:37;100649.75;;;12.13;100.00
10806;BME280;5455;53.224;6.000;2023-08-31T05:45:04;100654.06;;;12.14;100.00
10806;BME280;5455;53.224;6.000;2023-08-31T05:47:31;100653.28;;;12.14;100.00
10806;BME280;5455;53.224;6.000;2023-08-31T05:49:58;100649.75;;;12.17;100.00
10806;BME280;5455;53.224;6.000;2023-08-31T05:52:26;100655.28;;;12.17;100.00
10806;BME280;5455;53.224;6.000;2023-08-31T05:54:53;100649.13;;;12.27;100.00
10806;BME280;5455;53.224;6.000;2023-08-31T05:57:22;100656.75;;;12.37;100.00
10806;BME280;5455;53.224;6.000;2023-08-31T05:59:49;100658.03;;;12.43;100.00
10806;BME280;5455;53.224;6.000;2023-08-31T06:02:16;100652.16;;;12.48;100.00
10806;BME280;5455;53.224;6.000;2023-08-31T06:04:43;100656.53;;;12.53;100.00
10806;BME280;5455;53.224;6.000;2023-08-31T06:07:10;100661.00;;;12.61;100.00
10806;BME280;5455;53.224;6.000;2023-08-31T06:09:37;100662.25;;;12.67;100.00
10806;BME280;5455;53.224;6.000;2023-08-31T06:12:05;100660.31;;;12.71;100.00
10806;BME280;5455;53.224;6.000;2023-08-31T06:14:33;100673.81;;;12.76;100.00
10806;BME280;5455;53.224;6.000;2023-08-31T06:17:00;100676.63;;;12.80;100.00
10806;BME280;5455;53.224;6.000;2023-08-31T06:19:27;100667.22;;;12.88;100.00
10806;BME280;5455;53.224;6.000;2023-08-31T06:21:54;100673.59;;;12.92;100.00
10806;BME280;5455;53.224;6.000;2023-08-31T06:24:21;100676.38;;;12.95;100.00
10806;BME280;5455;53.224;6.000;2023-08-31T06:26:48;100678.84;;;13.00;100.00
10806;BME280;5455;53.224;6.000;2023-08-31T06:29:15;100686.06;;;13.08;100.00
10806;BME280;5455;53.224;6.000;2023-08-31T06:31:42;100691.69;;;13.15;100.00
10806;BME280;5455;53.224;6.000;2023-08-31T06:34:09;100687.38;;;13.21;100.00
10806;BME280;5455;53.224;6.000;2023-08-31T06:36:36;100692.19;;;13.28;100.00
10806;BME280;5455;53.224;6.000;2023-08-31T06:39:03;100693.41;;;13.34;100.00
10806;BME280;5455;53.224;6.000;2023-08-31T06:41:31;100691.94;;;13.44;100.00
10806;BME280;5455;53.224;6.000;2023-08-31T06:43:58;100690.84;;;13.55;100.00
10806;BME280;5455;53.224;6.000;2023-08-31T06:46:25;100696.06;;;13.64;100.00
10806;BME280;5455;53.224;6.000;2023-08-31T06:48:52;100698.50;;;13.69;100.00
10806;BME280;5455;53.224;6.000;2023-08-31T06:51:19;100701.31;;;13.76;100.00
10806;BME280;5455;53.224;6.000;2023-08-31T06:53:50;100703.34;;;13.82;100.00
10806;BME280;5455;53.224;6.000;2023-08-31T06:56:17;100703.00;;;13.91;100.00
10806;BME280;5455;53.224;6.000;2023-08-31T06:58:44;100706.63;;;13.99;100.00
10806;BME280;5455;53.224;6.000;2023-08-31T07:01:12;100706.25;;;14.04;100.00
10806;BME280;5455;53.224;6.000;2023-08-31T07:03:40;100711.47;;;14.12;100.00
10806;BME280;5455;53.224;6.000;2023-08-31T07:06:07;100714.69;;;14.21;100.00
10806;BME280;5455;53.224;6.000;2023-08-31T07:08:34;100710.06;;;14.32;100.00
10806;BME280;5455;53.224;6.000;2023-08-31T07:11:03;100716.44;;;14.44;100.00
10806;BME280;5455;53.224;6.000;2023-08-31T07:13:31;100716.50;;;14.58;100.00
10806;BME280;5455;53.224;6.000;2023-08-31T07:15:58;100722.53;;;14.70;100.00
10806;BME280;5455;53.224;6.000;2023-08-31T07:18:26;100719.81;;;14.81;100.00
10806;BME280;5455;53.224;6.000;2023-08-31T07:20:53;100719.03;;;14.91;100.00
10806;BME280;5455;53.224;6.000;2023-08-31T07:23:20;100729.41;;;15.05;100.00
10806;BME280;5455;53.224;6.000;2023-08-31T07:25:47;100732.63;;;15.24;100.00
10806;BME280;5455;53.224;6.000;2023-08-31T07:28:14;100733.44;;;15.39;100.00
10806;BME280;5455;53.224;6.000;2023-08-31T07:30:41;100735.84;;;15.44;100.00
10806;BME280;5455;53.224;6.000;2023-08-31T07:33:09;100729.13;;;15.52;100.00
10806;BME280;5455;53.224;6.000;2023-08-31T07:35:56;100724.38;;;15.70;100.00
10806;BME280;5455;53.224;6.000;2023-08-31T07:38:25;100732.72;;;15.95;100.00
10806;BME280;5455;53.224;6.000;2023-08-31T07:40:53;100736.28;;;16.13;100.00
10806;BME280;5455;53.224;6.000;2023-08-31T07:43:20;100739.03;;;16.27;100.00
10806;BME280;5455;53.224;6.000;2023-08-31T07:45:48;100743.00;;;16.37;100.00
10806;BME280;5455;53.224;6.000;2023-08-31T07:48:15;100751.31;;;16.47;100.00
10806;BME280;5455;53.224;6.000;2023-08-31T07:50:43;100756.06;;;16.65;100.00
10806;BME280;5455;53.224;6.000;2023-08-31T07:53:11;100760.34;;;16.94;100.00
10806;BME280;5455;53.224;6.000;2023-08-31T07:55:39;100765.78;;;17.22;100.00
10806;BME280;5455;53.224;6.000;2023-08-31T07:58:06;100778.34;;;17.58;100.00
10806;BME280;5455;53.224;6.000;2023-08-31T08:00:33;100767.69;;;17.98;100.00
10806;BME280;5455;53.224;6.000;2023-08-31T08:03:01;100775.59;;;18.47;100.00
10806;BME280;5455;53.224;6.000;2023-08-31T08:05:28;100774.56;;;19.05;100.00
10806;BME280;5455;53.224;6.000;2023-08-31T08:07:55;100790.88;;;18.77;100.00
10806;BME280;5455;53.224;6.000;2023-08-31T08:10:22;100800.13;;;17.74;100.00
10806;BME280;5455;53.224;6.000;2023-08-31T08:12:49;100799.28;;;17.01;100.00
10806;BME280;5455;53.224;6.000;2023-08-31T08:15:16;100796.63;;;16.51;100.00
10806;BME280;5455;53.224;6.000;2023-08-31T08:17:44;100796.25;;;16.11;100.00
10806;BME280;5455;53.224;6.000;2023-08-31T08:20:11;100796.28;;;15.82;100.00
10806;BME280;5455;53.224;6.000;2023-08-31T08:22:38;100788.69;;;15.65;100.00
10806;BME280;5455;53.224;6.000;2023-08-31T08:25:05;100786.28;;;15.53;100.00
10806;BME280;5455;53.224;6.000;2023-08-31T08:27:33;100786.25;;;15.42;100.00
10806;BME280;5455;53.224;6.000;2023-08-31T08:30:00;100778.69;;;15.39;100.00
10806;BME280;5455;53.224;6.000;2023-08-31T08:32:27;100772.38;;;15.53;100.00
10806;BME280;5455;53.224;6.000;2023-08-31T08:34:54;100781.97;;;15.80;100.00
10806;BME280;5455;53.224;6.000;2023-08-31T08:37:22;100787.53;;;16.26;100.00
10806;BME280;5455;53.224;6.000;2023-08-31T08:39:51;100781.91;;;16.76;100.00
10806;BME280;5455;53.224;6.000;2023-08-31T08:42:22;100802.09;;;17.01;100.00
10806;BME280;5455;53.224;6.000;2023-08-31T08:44:51;100787.22;;;17.32;100.00
10806;BME280;5455;53.224;6.000;2023-08-31T08:47:18;100788.28;;;17.59;100.00
10806;BME280;5455;53.224;6.000;2023-08-31T08:49:47;100792.16;;;17.73;100.00
10806;BME280;5455;53.224;6.000;2023-08-31T08:52:15;100797.25;;;17.85;100.00
10806;BME280;5455;53.224;6.000;2023-08-31T08:54:42;100801.66;;;17.82;100.00
10806;BME280;5455;53.224;6.000;2023-08-31T08:57:09;100804.31;;;18.03;100.00
10806;BME280;5455;53.224;6.000;2023-08-31T08:59:36;100800.72;;;18.03;100.00
10806;BME280;5455;53.224;6.000;2023-08-31T09:02:03;100803.56;;;17.96;100.00
10806;BME280;5455;53.224;6.000;2023-08-31T09:04:31;100806.13;;;18.21;100.00
10806;BME280;5455;53.224;6.000;2023-08-31T09:06:59;100819.59;;;18.33;100.00
10806;BME280;5455;53.224;6.000;2023-08-31T09:09:26;100821.09;;;18.44;100.00
10806;BME280;5455;53.224;6.000;2023-08-31T09:11:53;100820.25;;;18.51;100.00
10806;BME280;5455;53.224;6.000;2023-08-31T09:14:22;100831.72;;;18.63;100.00
10806;BME280;5455;53.224;6.000;2023-08-31T09:16:50;100830.91;;;18.63;100.00
10806;BME280;5455;53.224;6.000;2023-08-31T09:19:19;100833.00;;;18.55;100.00
10806;BME280;5455;53.224;6.000;2023-08-31T09:21:48;100831.06;;;18.49;100.00
10806;BME280;5455;53.224;6.000;2023-08-31T09:24:15;100837.06;;;18.44;100.00
10806;BME280;5455;53.224;6.000;2023-08-31T09:26:45;100834.50;;;18.15;100.00
10806;BME280;5455;53.224;6.000;2023-08-31T09:29:16;100840.25;;;17.94;100.00
10806;BME280;5455;53.224;6.000;2023-08-31T09:31:43;100829.66;;;17.72;100.00
10806;BME280;5455;53.224;6.000;2023-08-31T09:34:12;100834.72;;;17.87;100.00
10806;BME280;5455;53.224;6.000;2023-08-31T09:36:40;100840.97;;;18.05;100.00
10806;BME280;5455;53.224;6.000;2023-08-31T09:39:09;100843.94;;;18.32;100.00
10806;BME280;5455;53.224;6.000;2023-08-31T09:41:55;100843.84;;;18.43;100.00
10806;BME280;5455;53.224;6.000;2023-08-31T09:44:22;100839.84;;;18.47;100.00
10806;BME280;5455;53.224;6.000;2023-08-31T09:46:50;100844.28;;;18.41;100.00
10806;BME280;5455;53.224;6.000;2023-08-31T09:49:18;100841.88;;;18.40;100.00
10806;BME280;5455;53.224;6.000;2023-08-31T09:51:48;100837.53;;;18.35;100.00
10806;BME280;5455;53.224;6.000;2023-08-31T09:54:17;100838.53;;;18.62;100.00
10806;BME280;5455;53.224;6.000;2023-08-31T09:56:46;100833.91;;;18.83;100.00
10806;BME280;5455;53.224;6.000;2023-08-31T09:59:16;100833.09;;;19.19;100.00
10806;BME280;5455;53.224;6.000;2023-08-31T10:01:45;100836.13;;;18.98;100.00
10806;BME280;5455;53.224;6.000;2023-08-31T10:04:13;100824.19;;;18.94;100.00
10806;BME280;5455;53.224;6.000;2023-08-31T10:06:43;100832.13;;;18.62;100.00
10806;BME280;5455;53.224;6.000;2023-08-31T10:09:10;100833.03;;;18.52;100.00
10806;BME280;5455;53.224;6.000;2023-08-31T10:11:38;100831.75;;;18.97;100.00
10806;BME280;5455;53.224;6.000;2023-08-31T10:14:08;100834.41;;;19.42;100.00
10806;BME280;5455;53.224;6.000;2023-08-31T10:16:39;100838.09;;;19.65;100.00
10806;BME280;5455;53.224;6.000;2023-08-31T10:19:08;100837.69;;;19.94;100.00
10806;BME280;5455;53.224;6.000;2023-08-31T10:21:35;100841.19;;;20.24;100.00
10806;BME280;5455;53.224;6.000;2023-08-31T10:24:02;100842.56;;;20.13;100.00
10806;BME280;5455;53.224;6.000;2023-08-31T10:26:33;100845.09;;;20.04;100.00
10806;BME280;5455;53.224;6.000;2023-08-31T10:29:00;100850.13;;;19.62;100.00
10806;BME280;5455;53.224;6.000;2023-08-31T10:31:33;100841.81;;;19.25;100.00
10806;BME280;5455;53.224;6.000;2023-08-31T10:34:03;100844.16;;;19.26;100.00
10806;BME280;5455;53.224;6.000;2023-08-31T10:36:46;100836.50;;;19.34;100.00
10806;BME280;5455;53.224;6.000;2023-08-31T10:39:23;100845.41;;;19.56;100.00
10806;BME280;5455;53.224;6.000;2023-08-31T10:41:55;100848.97;;;19.87;100.00
10806;BME280;5455;53.224;6.000;2023-08-31T10:44:24;100846.44;;;19.96;100.00
10806;BME280;5455;53.224;6.000;2023-08-31T10:46:52;100853.50;;;19.77;100.00
10806;BME280;5455;53.224;6.000;2023-08-31T10:49:21;100843.91;;;19.78;100.00
10806;BME280;5455;53.224;6.000;2023-08-31T10:52:14;100859.00;;;19.84;100.00
10806;BME280;5455;53.224;6.000;2023-08-31T10:54:55;100850.69;;;20.04;100.00
10806;BME280;5455;53.224;6.000;2023-08-31T10:57:29;100864.00;;;20.23;100.00
10806;BME280;5455;53.224;6.000;2023-08-31T10:59:57;100860.44;;;19.96;100.00
10806;BME280;5455;53.224;6.000;2023-08-31T11:05:02;100875.78;;;19.57;100.00
10806;BME280;5455;53.224;6.000;2023-08-31T11:07:32;100874.72;;;19.44;100.00
10806;BME280;5455;53.224;6.000;2023-08-31T11:10:19;100873.75;;;19.24;100.00
10806;BME280;5455;53.224;6.000;2023-08-31T11:12:48;100865.44;;;19.17;100.00
10806;BME280;5455;53.224;6.000;2023-08-31T11:15:24;100869.66;;;19.32;100.00
10806;BME280;5455;53.224;6.000;2023-08-31T11:17:53;100875.97;;;19.43;100.00
10806;BME280;5455;53.224;6.000;2023-08-31T11:20:22;100876.38;;;19.42;100.00
10806;BME280;5455;53.224;6.000;2023-08-31T11:22:51;100872.41;;;19.36;100.00
10806;BME280;5455;53.224;6.000;2023-08-31T11:25:21;100874.78;;;19.41;100.00
10806;BME280;5455;53.224;6.000;2023-08-31T11:30:21;100885.66;;;19.32;100.00
10806;BME280;5455;53.224;6.000;2023-08-31T11:32:51;100881.59;;;19.36;100.00
10806;BME280;5455;53.224;6.000;2023-08-31T11:35:20;100891.16;;;19.72;100.00
10806;BME280;5455;53.224;6.000;2023-08-31T11:37:52;100887.19;;;19.70;100.00
10806;BME280;5455;53.224;6.000;2023-08-31T11:40:19;100887.16;;;19.73;100.00
10806;BME280;5455;53.224;6.000;2023-08-31T11:42:48;100900.31;;;19.76;100.00
10806;BME280;5455;53.224;6.000;2023-08-31T11:45:15;100899.50;;;19.46;100.00
10806;BME280;5455;53.224;6.000;2023-08-31T11:47:43;100902.25;;;19.12;100.00
10806;BME280;5455;53.224;6.000;2023-08-31T11:50:11;100904.25;;;19.11;100.00
10806;BME280;5455;53.224;6.000;2023-08-31T11:52:40;100895.66;;;19.29;100.00
10806;BME280;5455;53.224;6.000;2023-08-31T11:55:12;100905.19;;;19.35;100.00
10806;BME280;5455;53.224;6.000;2023-08-31T11:57:39;100895.16;;;19.41;100.00
10806;BME280;5455;53.224;6.000;2023-08-31T12:00:07;100903.03;;;19.16;100.00
10806;BME280;5455;53.224;6.000;2023-08-31T12:02:35;100914.31;;;19.05;100.00
10806;BME280;5455;53.224;6.000;2023-08-31T12:05:04;100904.81;;;18.96;100.00
10806;BME280;5455;53.224;6.000;2023-08-31T12:07:39;100911.47;;;19.09;100.00
10806;BME280;5455;53.224;6.000;2023-08-31T12:10:08;100911.50;;;19.05;100.00
10806;BME280;5455;53.224;6.000;2023-08-31T12:12:36;100905.50;;;19.07;100.00
10806;BME280;5455;53.224;6.000;2023-08-31T12:15:05;100906.69;;;19.09;100.00
10806;BME280;5455;53.224;6.000;2023-08-31T12:17:37;100917.13;;;19.02;100.00
10806;BME280;5455;53.224;6.000;2023-08-31T12:20:06;100921.34;;;19.17;100.00
10806;BME280;5455;53.224;6.000;2023-08-31T12:22:33;100933.13;;;19.35;100.00
10806;BME280;5455;53.224;6.000;2023-08-31T12:25:02;100926.34;;;19.36;100.00
10806;BME280;5455;53.224;6.000;2023-08-31T12:27:29;100927.66;;;19.28;100.00
10806;BME280;5455;53.224;6.000;2023-08-31T12:29:57;100935.03;;;19.49;100.00
10806;BME280;5455;53.224;6.000;2023-08-31T12:32:24;100938.50;;;19.56;100.00
10806;BME280;5455;53.224;6.000;2023-08-31T12:34:51;100932.91;;;19.56;100.00
10806;BME280;5455;53.224;6.000;2023-08-31T12:37:18;100956.06;;;19.60;100.00
10806;BME280;5455;53.224;6.000;2023-08-31T12:39:46;100958.53;;;19.55;100.00
10806;BME280;5455;53.224;6.000;2023-08-31T12:42:13;100961.47;;;19.41;100.00
10806;BME280;5455;53.224;6.000;2023-08-31T12:44:49;100954.94;;;19.54;100.00
10806;BME280;5455;53.224;6.000;2023-08-31T12:47:16;100956.97;;;19.84;100.00
10806;BME280;5455;53.224;6.000;2023-08-31T12:49:43;100955.88;;;20.35;100.00
10806;BME280;5455;53.224;6.000;2023-08-31T12:52:10;100949.28;;;20.49;100.00
10806;BME280;5455;53.224;6.000;2023-08-31T12:54:38;100930.66;;;20.35;100.00
10806;BME280;5455;53.224;6.000;2023-08-31T12:57:05;100945.19;;;20.53;100.00
10806;BME280;5455;53.224;6.000;2023-08-31T12:59:32;100942.31;;;20.33;100.00
10806;BME280;5455;53.224;6.000;2023-08-31T13:01:59;100950.47;;;20.21;100.00